Αρχική σελίδα
METAR-TAF:

METAR-TAF

Αεροδρόμια :

Φρέσνο, Καλιφόρνια, Ηνωμένες Πολιτείες Αμερικής

γεωγραφικό πλάτος: 36-46-48N, γεωγραφικό μήκος: 119-43-10W, υψόμετρο: 101 μ

Παρών καιρός

Η αναφορά έγινε 58 λεπτά πριν, στις 22:53 UTC
Άνεμος 6 kt από Δ
Θερμοκρασία 37°C
Υγρασία 24%
Πίεση 1015 hPa
Ορατότητα: 16.1 χλμ
Λίγα νέφη σε ύψος 10000 πόδια
Λίγα νέφη σε ύψος 20000 πόδια

METAR: KFAT 222253Z 28006KT 10SM FEW100 FEW200 37/13 A2996 RMK AO2 SLP139 TCU OMTNS DSNT N NE E SE MTNS PTLY OBSC T03720128

Χρόνος: 16:51 (23:51 UTC)

Πρόγνωση Καιρού

Η αναφορά έγινε 31 λεπτά πριν, στις 23:20 UTC
Η πρόγνωση ισχύει από τις 23 στις 00 UTC έως τις 23 στις 24 UTC
Άνεμος 8 kt από Δ/BΔ
Ορατότητα: 10 χλμ
Αρκετά νέφη σε ύψος 20000 πόδια

TAF: KFAT 222320Z 2300/2324 30008KT P6SM BKN200

Μετεωρολογικές αναφορές και προγνώσεις για περισσότερα από 4000 αεροδρόμια (δελτία METAR και TAF).

Οι διαθέσιμοι σταθμοί απεικονίζονται στο χάρτη με κίτρινες και κόκκινες κουκκίδες.

Μετακινήστε το ποντίκι πάνω από τις κουκκίδες για να δείτε το όνομα του σταθμού.

Στη συνέχεια, κάντε κλικ για να δείτε τις μετεωρολογικές αναφορές και τις προγνώσεις καιρού.

Για να αλλάξετε το χάρτη: κάντε κλικ στα πράσινα κουμπιά με τον μαύρο σταυρό για να ζουμάρετε, στο πράσινο κουμπί με την παύλα για να αφαιρέσετε το ζουμ ή στα πράσινα βέλη για να αντιπαραβάλλετε χάρτες.


METAR-TAF: